Booth, West Virginia
Current Conditions -  °F | °C
As of 4:53 AM on Sunday 23 Nov 2014 (Local Time) from KMGW Reporting Station
Overcast Overcast  
Wind Chill: 52°   Ceiling: 8000
Heat Index: 52°   Visibility: 10mi
Dew Point: 21°   Wind: 5mph
Humidity: 30%   Direction: 190°S
Pressure: 30.12"   Gusts: NA
Location:  39.6°N, 80.02°W
Report Text: KMGW 230953Z AUTO 19004KT 10SM OVC080 11/M06 A3012 RMK AO2 SLP201 T01111061 TSNO
Loading
Personal Weather Stations






























Interactive Weather Map New forecast layout! Learn more

10-Day Weather Forecast

Advertisements
Track Severe Weather on mobile